Time;durP1;ratioP1;P1;durP2;ratioP2;P2;SDS_P1;SDS_P2;PMS_P1;PMS_P2;Temp;Humidity;BMP_temperature;BMP_pressure;BME280_temperature;BME280_humidity;BME280_pressure;Samples;Min_cycle;Max_cycle;Signal;HPM_P1;HPM_P2
2023/08/07 00:00:25;;;;;;;;;;;21.40;58.10;;;;;;5099103;28;19928;-58
2023/08/07 00:02:53;;;;;;;;;;;21.50;58.10;;;;;;5112110;28;20405;-58
2023/08/07 00:05:20;;;;;;;;;;;21.40;58.10;;;;;;5109516;27;19928;-58
2023/08/07 00:07:46;;;;;;;;;;;21.40;58.10;;;;;;5126930;27;19927;-58
2023/08/07 00:10:14;;;;;;;;;;;21.40;58.10;;;;;;5125136;27;19976;-58
2023/08/07 00:12:41;;;;;;;;;;;21.40;58.10;;;;;;5110335;27;19939;-58
2023/08/07 00:15:08;;;;;;;;;;;21.40;58.10;;;;;;5109533;28;20342;-58
2023/08/07 00:17:35;;;;;;;;;;;21.40;58.10;;;;;;5106633;27;19923;-58
2023/08/07 00:20:03;;;;;;;;;;;21.40;58.10;;;;;;5103462;28;19931;-58
2023/08/07 00:22:30;;;;;;;;;;;21.40;58.10;;;;;;5105849;28;19927;-58
2023/08/07 00:24:57;;;;;;;;;;;21.40;58.00;;;;;;5112373;27;20569;-58
2023/08/07 00:27:24;;;;;;;;;;;21.40;58.00;;;;;;5101751;27;19972;-58
2023/08/07 00:29:50;;;;;;;;;;;21.40;58.00;;;;;;5100114;28;19946;-58
2023/08/07 00:32:17;;;;;;;;;;;21.40;57.90;;;;;;5124559;27;19931;-58
2023/08/07 00:34:44;;;;;;;;;;;21.40;57.90;;;;;;5113540;27;19930;-58
2023/08/07 00:37:12;;;;;;;;;;;21.40;57.90;;;;;;5104909;27;19927;-58
2023/08/07 00:39:39;;;;;;;;;;;21.40;57.80;;;;;;5117002;27;19923;-57
2023/08/07 00:42:06;;;;;;;;;;;21.40;57.80;;;;;;5125537;27;19976;-58
2023/08/07 00:44:33;;;;;;;;;;;21.40;57.70;;;;;;5104730;27;19987;-58
2023/08/07 00:47:00;;;;;;;;;;;21.40;57.70;;;;;;5105395;28;19924;-58
2023/08/07 00:49:27;;;;;;;;;;;21.40;57.60;;;;;;5113748;27;19923;-58
2023/08/07 00:51:53;;;;;;;;;;;21.40;57.50;;;;;;5105418;28;20318;-58
2023/08/07 00:54:22;;;;;;;;;;;21.40;57.50;;;;;;5114978;27;20302;-58
2023/08/07 00:56:49;;;;;;;;;;;21.40;57.40;;;;;;5108372;27;20346;-59
2023/08/07 00:59:15;;;;;;;;;;;21.40;57.40;;;;;;5123529;27;19989;-58
2023/08/07 01:01:42;;;;;;;;;;;21.40;57.20;;;;;;5116514;27;19927;-58
2023/08/07 01:04:09;;;;;;;;;;;21.40;57.20;;;;;;5121776;27;19927;-58
2023/08/07 01:06:36;;;;;;;;;;;21.40;57.10;;;;;;5118831;27;19924;-58
2023/08/07 01:09:02;;;;;;;;;;;21.40;57.10;;;;;;5091668;28;19981;-58
2023/08/07 01:11:34;;;;;;;;;;;21.30;56.90;;;;;;5131441;27;19980;-57
2023/08/07 01:14:01;;;;;;;;;;;21.30;56.90;;;;;;5108975;27;19923;-56
2023/08/07 01:16:29;;;;;;;;;;;21.40;56.90;;;;;;5102319;28;20028;-58
2023/08/07 01:18:56;;;;;;;;;;;21.30;56.80;;;;;;5110348;27;20372;-58
2023/08/07 01:21:23;;;;;;;;;;;21.30;56.80;;;;;;5097352;28;19988;-58
2023/08/07 01:23:51;;;;;;;;;;;21.30;56.70;;;;;;5106167;28;19927;-58
2023/08/07 01:26:18;;;;;;;;;;;21.30;56.70;;;;;;5106433;27;19927;-59
2023/08/07 01:28:47;;;;;;;;;;;21.30;56.70;;;;;;5091773;28;19924;-58
2023/08/07 01:31:15;;;;;;;;;;;21.30;56.70;;;;;;5091707;27;19930;-58
2023/08/07 01:33:44;;;;;;;;;;;21.30;56.70;;;;;;5103376;28;19992;-58
2023/08/07 01:36:10;;;;;;;;;;;21.30;57.00;;;;;;5107452;28;19930;-58
2023/08/07 01:38:37;;;;;;;;;;;21.30;56.70;;;;;;5104129;27;19932;-58
2023/08/07 01:41:05;;;;;;;;;;;21.30;56.70;;;;;;5133961;27;19953;-57
2023/08/07 01:43:32;;;;;;;;;;;21.30;56.70;;;;;;5104842;27;19924;-58
2023/08/07 01:45:59;;;;;;;;;;;21.30;56.70;;;;;;5104914;28;19959;-58
2023/08/07 01:48:26;;;;;;;;;;;21.30;56.80;;;;;;5100531;28;19924;-58
2023/08/07 01:50:53;;;;;;;;;;;21.30;56.80;;;;;;5110736;27;19935;-58
2023/08/07 01:53:20;;;;;;;;;;;21.30;56.80;;;;;;5106331;27;19931;-59
2023/08/07 01:55:47;;;;;;;;;;;21.30;56.80;;;;;;5093602;27;19980;-58
2023/08/07 01:58:15;;;;;;;;;;;21.30;56.80;;;;;;5115457;27;19924;-58
2023/08/07 02:00:42;;;;;;;;;;;21.30;56.80;;;;;;5104078;27;19976;-58
2023/08/07 02:03:09;;;;;;;;;;;21.30;56.80;;;;;;5105898;27;19931;-58
2023/08/07 02:05:35;;;;;;;;;;;21.30;56.80;;;;;;5103683;28;20394;-58
2023/08/07 02:08:02;;;;;;;;;;;21.30;56.90;;;;;;5104142;28;19959;-58
2023/08/07 02:10:29;;;;;;;;;;;21.30;56.90;;;;;;5118314;27;19927;-58
2023/08/07 02:12:58;;;;;;;;;;;21.30;56.90;;;;;;5125586;27;19923;-59
2023/08/07 02:15:26;;;;;;;;;;;21.30;56.90;;;;;;5107136;27;19923;-58
2023/08/07 02:17:52;;;;;;;;;;;21.30;56.90;;;;;;5106860;27;19924;-59
2023/08/07 02:20:19;;;;;;;;;;;21.30;56.90;;;;;;5116649;27;19931;-59
2023/08/07 02:22:46;;;;;;;;;;;21.30;56.80;;;;;;5103476;27;19986;-59
2023/08/07 02:25:13;;;;;;;;;;;21.30;56.80;;;;;;5099296;27;19924;-58
2023/08/07 02:27:40;;;;;;;;;;;21.30;56.80;;;;;;5116867;27;19928;-58
2023/08/07 02:30:07;;;;;;;;;;;21.30;56.80;;;;;;5114609;27;20404;-57
2023/08/07 02:32:35;;;;;;;;;;;21.20;56.70;;;;;;5102672;27;19980;-57
2023/08/07 02:35:02;;;;;;;;;;;21.30;56.70;;;;;;5103703;28;19976;-58
2023/08/07 02:37:28;;;;;;;;;;;21.20;56.60;;;;;;5123491;27;20060;-57
2023/08/07 02:39:55;;;;;;;;;;;21.30;56.60;;;;;;5110128;27;19930;-59
2023/08/07 02:42:22;;;;;;;;;;;21.20;56.50;;;;;;5111837;27;19924;-58
2023/08/07 02:44:49;;;;;;;;;;;21.20;56.40;;;;;;5093873;28;19928;-58
2023/08/07 02:47:15;;;;;;;;;;;21.30;56.40;;;;;;5096238;27;20280;-58
2023/08/07 02:49:44;;;;;;;;;;;21.20;56.30;;;;;;5092448;28;20381;-58
2023/08/07 02:52:11;;;;;;;;;;;21.20;56.30;;;;;;5127406;27;20046;-59
2023/08/07 02:54:37;;;;;;;;;;;21.20;56.20;;;;;;5115643;27;20365;-58
2023/08/07 02:57:04;;;;;;;;;;;21.20;56.20;;;;;;5119606;27;19923;-57
2023/08/07 02:59:31;;;;;;;;;;;21.20;56.20;;;;;;5115008;27;19972;-58
2023/08/07 03:01:57;;;;;;;;;;;21.20;56.10;;;;;;5113782;27;19960;-58
2023/08/07 03:04:24;;;;;;;;;;;21.20;56.10;;;;;;5107100;28;20335;-58
2023/08/07 03:06:52;;;;;;;;;;;21.20;56.10;;;;;;5125881;27;19927;-58
2023/08/07 03:09:19;;;;;;;;;;;21.20;56.10;;;;;;5103272;28;19928;-59
2023/08/07 03:11:46;;;;;;;;;;;21.20;56.10;;;;;;5104625;27;19924;-59
2023/08/07 03:14:13;;;;;;;;;;;21.20;56.10;;;;;;5113966;27;19931;-59
2023/08/07 03:16:39;;;;;;;;;;;21.20;56.10;;;;;;5091741;27;19996;-58
2023/08/07 03:19:06;;;;;;;;;;;21.20;56.10;;;;;;5103959;28;19924;-58
2023/08/07 03:21:33;;;;;;;;;;;21.20;56.10;;;;;;5087840;27;19924;-58
2023/08/07 03:24:01;;;;;;;;;;;21.20;56.00;;;;;;5123730;27;20003;-59
2023/08/07 03:26:28;;;;;;;;;;;21.20;56.00;;;;;;5111380;28;19930;-58
2023/08/07 03:28:54;;;;;;;;;;;21.20;56.00;;;;;;5101055;28;19950;-59
2023/08/07 03:31:21;;;;;;;;;;;21.20;56.00;;;;;;5126790;28;19930;-58
2023/08/07 03:33:48;;;;;;;;;;;21.20;56.50;;;;;;5118643;27;19966;-58
2023/08/07 03:36:15;;;;;;;;;;;21.20;55.90;;;;;;5100734;28;20063;-58
2023/08/07 03:38:42;;;;;;;;;;;21.20;55.90;;;;;;5100048;28;19931;-59
2023/08/07 03:41:10;;;;;;;;;;;21.20;56.00;;;;;;5113947;28;19923;-58
2023/08/07 03:43:37;;;;;;;;;;;21.20;56.00;;;;;;5123920;28;19931;-58
2023/08/07 03:46:03;;;;;;;;;;;21.20;55.90;;;;;;5104425;28;19934;-58
2023/08/07 03:48:30;;;;;;;;;;;21.20;55.90;;;;;;5099612;28;19982;-58
2023/08/07 03:51:02;;;;;;;;;;;21.20;55.90;;;;;;5097368;28;20364;-58
2023/08/07 03:53:29;;;;;;;;;;;21.20;55.90;;;;;;5120231;28;19927;-58
2023/08/07 03:55:56;;;;;;;;;;;21.20;55.90;;;;;;5100914;28;19931;-60
2023/08/07 03:58:24;;;;;;;;;;;21.20;56.00;;;;;;5103873;28;19969;-59
2023/08/07 04:00:51;;;;;;;;;;;21.20;55.90;;;;;;5107606;28;19927;-58
2023/08/07 04:03:18;;;;;;;;;;;21.20;56.00;;;;;;5105558;28;19931;-58
2023/08/07 04:05:45;;;;;;;;;;;21.20;55.90;;;;;;5105587;28;19924;-58
2023/08/07 04:08:12;;;;;;;;;;;21.20;55.90;;;;;;5132175;28;19930;-58
2023/08/07 04:10:38;;;;;;;;;;;21.20;55.90;;;;;;5094724;28;19924;-58
2023/08/07 04:13:05;;;;;;;;;;;21.20;55.90;;;;;;5085757;28;19943;-59
2023/08/07 04:15:33;;;;;;;;;;;21.20;56.00;;;;;;5101987;28;20314;-58
2023/08/07 04:18:00;;;;;;;;;;;21.20;55.90;;;;;;5127613;28;19924;-58
2023/08/07 04:20:27;;;;;;;;;;;21.20;56.00;;;;;;5122563;28;19923;-58
2023/08/07 04:22:54;;;;;;;;;;;21.20;56.00;;;;;;5103893;27;19927;-58
2023/08/07 04:25:21;;;;;;;;;;;21.20;56.00;;;;;;5118290;27;19935;-58
2023/08/07 04:27:47;;;;;;;;;;;21.20;56.00;;;;;;5103587;28;19924;-59
2023/08/07 04:30:14;;;;;;;;;;;21.20;56.00;;;;;;5102654;27;19924;-58
2023/08/07 04:32:42;;;;;;;;;;;21.20;56.00;;;;;;5108723;27;19934;-58
2023/08/07 04:35:09;;;;;;;;;;;21.20;56.00;;;;;;5103090;28;19928;-58
2023/08/07 04:37:36;;;;;;;;;;;21.10;56.00;;;;;;5097379;28;20048;-58
2023/08/07 04:40:04;;;;;;;;;;;21.20;56.10;;;;;;5105991;27;19955;-59
2023/08/07 04:42:32;;;;;;;;;;;21.20;56.70;;;;;;5105084;28;20031;-59
2023/08/07 04:44:59;;;;;;;;;;;21.20;56.10;;;;;;5123292;27;19927;-59
2023/08/07 04:47:25;;;;;;;;;;;21.20;56.20;;;;;;5105372;27;19984;-59
2023/08/07 04:49:53;;;;;;;;;;;21.10;56.10;;;;;;5105733;27;19930;-58
2023/08/07 04:52:20;;;;;;;;;;;21.10;56.20;;;;;;5105327;27;19930;-59
2023/08/07 04:54:47;;;;;;;;;;;21.20;56.30;;;;;;5102920;28;20271;-59
2023/08/07 04:57:14;;;;;;;;;;;21.20;56.40;;;;;;5105461;27;19923;-58
2023/08/07 04:59:41;;;;;;;;;;;21.20;56.40;;;;;;5124082;27;20135;-58
2023/08/07 05:02:07;;;;;;;;;;;21.10;56.30;;;;;;5101059;27;19980;-58
2023/08/07 05:04:34;;;;;;;;;;;21.20;56.40;;;;;;5110198;27;19924;-58
2023/08/07 05:07:02;;;;;;;;;;;21.20;56.50;;;;;;5103687;27;19952;-58
2023/08/07 05:09:29;;;;;;;;;;;21.20;56.50;;;;;;5105602;27;19927;-58
2023/08/07 05:11:56;;;;;;;;;;;21.20;56.50;;;;;;5100429;28;19949;-59
2023/08/07 05:14:23;;;;;;;;;;;21.20;56.60;;;;;;5106461;27;19981;-59
2023/08/07 05:16:49;;;;;;;;;;;21.20;56.60;;;;;;5099029;27;19927;-59
2023/08/07 05:19:16;;;;;;;;;;;21.20;56.60;;;;;;5102408;27;19924;-59
2023/08/07 05:21:43;;;;;;;;;;;21.20;56.60;;;;;;5100087;28;19930;-58
2023/08/07 05:24:12;;;;;;;;;;;21.20;56.70;;;;;;5129062;27;19920;-59
2023/08/07 05:26:39;;;;;;;;;;;21.20;56.70;;;;;;5092347;28;20385;-58
2023/08/07 05:29:06;;;;;;;;;;;21.20;56.70;;;;;;5099806;28;20444;-58
2023/08/07 05:31:33;;;;;;;;;;;21.20;56.70;;;;;;5116300;27;19927;-58
2023/08/07 05:34:00;;;;;;;;;;;21.20;56.70;;;;;;5095104;28;20288;-58
2023/08/07 05:36:27;;;;;;;;;;;21.20;56.70;;;;;;5102817;27;20191;-58
2023/08/07 05:38:54;;;;;;;;;;;21.20;56.70;;;;;;5119033;27;19934;-58
2023/08/07 05:41:22;;;;;;;;;;;21.20;56.70;;;;;;5099671;27;19935;-58
2023/08/07 05:43:48;;;;;;;;;;;21.20;56.80;;;;;;5106570;27;19930;-59
2023/08/07 05:46:15;;;;;;;;;;;21.20;56.90;;;;;;5129320;27;19928;-58
2023/08/07 05:48:42;;;;;;;;;;;21.20;56.80;;;;;;5109821;28;19932;-58
2023/08/07 05:51:09;;;;;;;;;;;21.20;56.80;;;;;;5098269;28;20510;-58
2023/08/07 05:53:36;;;;;;;;;;;21.20;56.90;;;;;;5094638;27;19927;-58
2023/08/07 05:56:03;;;;;;;;;;;21.20;56.90;;;;;;5118159;27;19935;-58
2023/08/07 05:58:31;;;;;;;;;;;21.20;57.00;;;;;;5127961;27;19928;-58
2023/08/07 06:00:58;;;;;;;;;;;21.20;57.00;;;;;;5113311;27;20421;-58
2023/08/07 06:03:24;;;;;;;;;;;21.20;57.00;;;;;;5100131;27;19931;-58
2023/08/07 06:05:51;;;;;;;;;;;21.20;57.10;;;;;;5099891;28;19928;-58
2023/08/07 06:08:18;;;;;;;;;;;21.20;57.10;;;;;;5123613;27;19997;-58
2023/08/07 06:10:45;;;;;;;;;;;21.20;57.20;;;;;;5091507;28;19935;-58
2023/08/07 06:13:12;;;;;;;;;;;21.20;57.30;;;;;;5094875;28;19932;-58
2023/08/07 06:15:40;;;;;;;;;;;21.20;57.30;;;;;;5101688;28;19994;-58
2023/08/07 06:18:07;;;;;;;;;;;21.20;57.40;;;;;;5099883;28;19924;-59
2023/08/07 06:20:34;;;;;;;;;;;21.20;57.40;;;;;;5119318;27;20030;-58
2023/08/07 06:23:01;;;;;;;;;;;21.20;57.50;;;;;;5118413;27;19924;-59
2023/08/07 06:25:28;;;;;;;;;;;21.20;57.50;;;;;;5116336;27;21544;-59
2023/08/07 06:27:55;;;;;;;;;;;21.20;57.50;;;;;;5087711;28;19985;-60
2023/08/07 06:30:22;;;;;;;;;;;21.20;57.60;;;;;;5081017;27;19932;-59
2023/08/07 06:32:50;;;;;;;;;;;21.20;57.60;;;;;;5094313;28;19928;-59
2023/08/07 06:35:17;;;;;;;;;;;21.20;57.70;;;;;;5111786;27;19923;-60
2023/08/07 06:37:44;;;;;;;;;;;21.20;57.70;;;;;;5092036;28;19930;-59
2023/08/07 06:40:11;;;;;;;;;;;21.20;57.80;;;;;;5090010;28;19924;-60
2023/08/07 06:42:38;;;;;;;;;;;21.20;57.80;;;;;;5114802;27;19930;-60
2023/08/07 06:45:05;;;;;;;;;;;21.20;57.90;;;;;;5104754;27;19942;-59
2023/08/07 06:47:32;;;;;;;;;;;21.20;57.90;;;;;;5088778;28;19936;-60
2023/08/07 06:50:00;;;;;;;;;;;21.20;57.90;;;;;;5098850;28;19931;-63
2023/08/07 06:52:27;;;;;;;;;;;21.20;57.90;;;;;;5099223;27;19947;-59
2023/08/07 06:54:54;;;;;;;;;;;21.20;57.80;;;;;;5102412;27;20030;-59
2023/08/07 06:57:21;;;;;;;;;;;21.20;57.90;;;;;;5090097;27;19924;-60
2023/08/07 06:59:47;;;;;;;;;;;21.20;57.90;;;;;;5094453;27;20295;-59
2023/08/07 07:02:14;;;;;;;;;;;21.20;57.90;;;;;;5094519;28;19946;-58
2023/08/07 07:04:41;;;;;;;;;;;21.20;57.90;;;;;;5084258;27;19931;-59
2023/08/07 07:07:09;;;;;;;;;;;21.30;58.00;;;;;;5088849;28;19924;-59
2023/08/07 07:09:36;;;;;;;;;;;21.20;57.90;;;;;;5114860;27;19928;-60
2023/08/07 07:12:03;;;;;;;;;;;21.30;58.00;;;;;;5097294;28;19935;-60
2023/08/07 07:14:30;;;;;;;;;;;21.30;58.00;;;;;;5093685;28;19935;-58
2023/08/07 07:16:56;;;;;;;;;;;21.20;58.00;;;;;;5087987;28;19931;-60
2023/08/07 07:19:23;;;;;;;;;;;21.30;58.10;;;;;;5096662;27;19946;-60
2023/08/07 07:21:50;;;;;;;;;;;21.30;58.40;;;;;;5090460;28;19932;-60
2023/08/07 07:24:18;;;;;;;;;;;21.30;58.10;;;;;;5094038;28;19931;-60
2023/08/07 07:26:45;;;;;;;;;;;21.30;58.20;;;;;;5088241;28;19928;-60
2023/08/07 07:29:12;;;;;;;;;;;21.30;58.20;;;;;;5084371;28;19924;-60
2023/08/07 07:31:38;;;;;;;;;;;21.30;58.20;;;;;;5095267;28;19928;-59
2023/08/07 07:34:05;;;;;;;;;;;21.30;58.20;;;;;;5082673;28;19923;-60
2023/08/07 07:36:32;;;;;;;;;;;21.30;58.10;;;;;;5096799;28;19927;-57
2023/08/07 07:38:59;;;;;;;;;;;21.30;58.10;;;;;;5115215;27;19924;-63
2023/08/07 07:41:27;;;;;;;;;;;21.30;58.10;;;;;;5085788;28;19931;-60
2023/08/07 07:43:56;;;;;;;;;;;21.30;58.10;;;;;;5090943;28;19931;-59
2023/08/07 07:46:23;;;;;;;;;;;21.30;58.00;;;;;;5110357;28;19930;-60
2023/08/07 07:48:50;;;;;;;;;;;21.30;57.90;;;;;;5093398;28;19924;-60
2023/08/07 07:51:17;;;;;;;;;;;21.30;57.90;;;;;;5109429;28;20026;-60
2023/08/07 07:53:43;;;;;;;;;;;21.30;57.80;;;;;;5097891;28;19936;-60
2023/08/07 07:56:10;;;;;;;;;;;21.30;57.80;;;;;;5092662;28;19988;-60
2023/08/07 07:58:40;;;;;;;;;;;21.30;57.80;;;;;;5109444;27;20308;-59
2023/08/07 08:01:07;;;;;;;;;;;21.30;57.70;;;;;;5102689;28;19967;-58
2023/08/07 08:03:34;;;;;;;;;;;21.30;57.70;;;;;;5092868;28;19928;-59
2023/08/07 08:06:00;;;;;;;;;;;21.30;57.70;;;;;;5090773;28;19923;-59
2023/08/07 08:08:27;;;;;;;;;;;21.30;57.70;;;;;;5117463;27;19923;-59
2023/08/07 08:10:54;;;;;;;;;;;21.30;57.60;;;;;;5093904;28;19928;-59
2023/08/07 08:13:22;;;;;;;;;;;21.30;57.60;;;;;;5098703;27;20019;-60
2023/08/07 08:15:50;;;;;;;;;;;21.30;57.30;;;;;;5114762;27;19928;-60
2023/08/07 08:18:17;;;;;;;;;;;21.30;57.30;;;;;;5096021;27;20311;-60
2023/08/07 08:20:44;;;;;;;;;;;21.30;57.20;;;;;;5110723;27;19935;-60
2023/08/07 08:23:11;;;;;;;;;;;21.20;57.10;;;;;;5100003;27;19924;-58
2023/08/07 08:25:38;;;;;;;;;;;21.20;57.00;;;;;;5110294;27;19931;-60
2023/08/07 08:28:05;;;;;;;;;;;21.30;57.10;;;;;;5108686;27;19928;-60
2023/08/07 08:30:32;;;;;;;;;;;21.20;57.00;;;;;;5095099;27;19932;-61
2023/08/07 08:33:00;;;;;;;;;;;21.20;57.00;;;;;;5092653;28;20110;-61
2023/08/07 08:35:27;;;;;;;;;;;21.20;57.00;;;;;;5114937;27;19923;-60
2023/08/07 08:37:54;;;;;;;;;;;21.20;57.10;;;;;;5090584;27;19991;-60
2023/08/07 08:40:21;;;;;;;;;;;21.20;57.10;;;;;;5094716;28;19927;-59
2023/08/07 08:42:47;;;;;;;;;;;21.20;57.20;;;;;;5096148;27;19928;-59
2023/08/07 08:45:14;;;;;;;;;;;21.20;57.20;;;;;;5107640;27;20592;-60
2023/08/07 08:47:41;;;;;;;;;;;21.20;57.30;;;;;;5095561;28;19932;-60
2023/08/07 08:50:11;;;;;;;;;;;21.20;57.30;;;;;;5118648;27;19974;-58
2023/08/07 08:52:38;;;;;;;;;;;21.20;57.40;;;;;;5076106;27;20014;-59
2023/08/07 08:55:06;;;;;;;;;;;21.20;57.40;;;;;;5118478;27;19981;-57
2023/08/07 08:57:33;;;;;;;;;;;21.20;57.40;;;;;;5096949;27;20145;-61
2023/08/07 08:59:59;;;;;;;;;;;21.20;57.40;;;;;;5108382;27;19950;-60
2023/08/07 09:02:26;;;;;;;;;;;21.20;57.30;;;;;;5095335;28;19928;-59
2023/08/07 09:04:53;;;;;;;;;;;21.20;57.10;;;;;;5115086;27;20701;-61
2023/08/07 09:07:21;;;;;;;;;;;21.20;56.90;;;;;;5112417;27;19924;-62
2023/08/07 09:09:48;;;;;;;;;;;21.20;56.50;;;;;;5109868;27;19928;-61
2023/08/07 09:12:16;;;;;;;;;;;21.20;56.10;;;;;;5091225;28;19984;-61
2023/08/07 09:14:42;;;;;;;;;;;21.20;55.70;;;;;;5090543;27;19924;-62
2023/08/07 09:17:09;;;;;;;;;;;21.20;55.10;;;;;;5099854;28;19928;-61
2023/08/07 09:19:36;;;;;;;;;;;21.20;54.80;;;;;;5093732;27;20640;-61
2023/08/07 09:22:03;;;;;;;;;;;21.10;54.30;;;;;;5110526;27;19924;-61
2023/08/07 09:24:32;;;;;;;;;;;21.10;54.20;;;;;;5095047;27;19928;-61
2023/08/07 09:26:59;;;;;;;;;;;21.10;54.00;;;;;;5113881;27;19931;-61
2023/08/07 09:29:26;;;;;;;;;;;21.10;53.80;;;;;;5095295;27;19972;-59
2023/08/07 09:31:52;;;;;;;;;;;21.10;53.80;;;;;;5087320;28;19935;-61
2023/08/07 09:34:20;;;;;;;;;;;21.10;53.90;;;;;;5089242;28;19924;-59
2023/08/07 09:36:47;;;;;;;;;;;21.10;54.00;;;;;;5088917;28;19927;-61
2023/08/07 09:39:14;;;;;;;;;;;21.10;54.00;;;;;;5093317;28;19963;-61
2023/08/07 09:41:42;;;;;;;;;;;21.10;53.90;;;;;;5121942;27;19928;-60
2023/08/07 09:44:10;;;;;;;;;;;21.10;53.50;;;;;;5095268;28;19925;-62
2023/08/07 09:46:43;;;;;;;;;;;21.10;53.30;;;;;;5126856;27;19924;-60
2023/08/07 09:49:10;;;;;;;;;;;21.10;53.30;;;;;;5094635;28;20373;-62
2023/08/07 09:51:44;;;;;;;;;;;21.10;53.30;;;;;;5106843;27;19934;-61
2023/08/07 09:54:10;;;;;;;;;;;21.10;53.40;;;;;;5090185;28;19959;-59
2023/08/07 09:56:37;;;;;;;;;;;21.10;53.40;;;;;;5080713;28;19931;-59
2023/08/07 09:59:06;;;;;;;;;;;21.10;53.40;;;;;;5086590;27;19927;-60
2023/08/07 10:01:33;;;;;;;;;;;21.10;53.30;;;;;;5086604;28;19932;-58
2023/08/07 10:03:59;;;;;;;;;;;21.10;53.30;;;;;;5085324;27;19924;-60
2023/08/07 10:06:26;;;;;;;;;;;21.20;53.10;;;;;;5085854;28;19932;-59
2023/08/07 10:08:53;;;;;;;;;;;21.20;52.90;;;;;;5093572;28;19951;-59
2023/08/07 10:11:19;;;;;;;;;;;21.10;53.00;;;;;;5095427;27;19924;-61
2023/08/07 10:13:46;;;;;;;;;;;21.10;53.20;;;;;;5092272;27;20005;-61
2023/08/07 10:16:14;;;;;;;;;;;21.10;53.30;;;;;;5091196;27;19932;-60
2023/08/07 10:18:41;;;;;;;;;;;21.10;53.20;;;;;;5105254;28;19923;-61
2023/08/07 10:21:08;;;;;;;;;;;21.20;53.30;;;;;;5087897;28;19920;-59
2023/08/07 10:23:35;;;;;;;;;;;21.20;53.20;;;;;;5092093;27;19927;-60
2023/08/07 10:26:03;;;;;;;;;;;21.20;53.20;;;;;;5104270;27;19947;-59
2023/08/07 10:28:29;;;;;;;;;;;21.20;53.10;;;;;;5095634;27;19932;-60
2023/08/07 10:30:56;;;;;;;;;;;21.20;53.30;;;;;;5087189;28;19928;-59
2023/08/07 10:33:24;;;;;;;;;;;21.20;53.30;;;;;;5094966;28;20385;-61
2023/08/07 10:35:52;;;;;;;;;;;21.20;53.20;;;;;;5121635;27;19924;-60
2023/08/07 10:38:19;;;;;;;;;;;21.20;53.00;;;;;;5090457;27;19924;-60
2023/08/07 10:40:59;;;;;;;;;;;21.20;52.80;;;;;;5115076;27;19961;-58
2023/08/07 10:43:27;;;;;;;;;;;21.20;52.50;;;;;;5094916;27;19931;-58
2023/08/07 10:45:54;;;;;;;;;;;21.20;52.40;;;;;;5091911;28;19977;-60
2023/08/07 10:48:21;;;;;;;;;;;21.20;52.10;;;;;;5094351;27;19923;-59
2023/08/07 10:50:58;;;;;;;;;;;21.20;51.90;;;;;;5085732;28;19931;-55
2023/08/07 10:53:29;;;;;;;;;;;21.20;51.60;;;;;;5112891;27;19959;-58
2023/08/07 10:55:57;;;;;;;;;;;21.20;51.80;;;;;;5091887;27;19931;-59
2023/08/07 10:58:26;;;;;;;;;;;21.10;51.70;;;;;;5103464;27;22419;-59
2023/08/07 11:00:53;;;;;;;;;;;21.10;51.90;;;;;;5092506;28;19935;-58
2023/08/07 11:03:21;;;;;;;;;;;21.10;52.00;;;;;;5087172;28;19923;-58
2023/08/07 11:05:48;;;;;;;;;;;21.10;52.00;;;;;;5084482;27;20354;-60
2023/08/07 11:08:16;;;;;;;;;;;21.00;51.90;;;;;;5117473;27;19924;-55
2023/08/07 11:10:43;;;;;;;;;;;21.10;52.20;;;;;;5098530;27;19981;-58
2023/08/07 11:13:09;;;;;;;;;;;21.10;52.10;;;;;;5097836;27;19924;-58
2023/08/07 11:15:36;;;;;;;;;;;21.10;51.80;;;;;;5100571;27;19935;-61
2023/08/07 11:18:03;;;;;;;;;;;21.10;51.90;;;;;;5125554;27;19924;-61
2023/08/07 11:20:30;;;;;;;;;;;21.10;51.70;;;;;;5088863;28;19931;-62
2023/08/07 11:22:58;;;;;;;;;;;21.10;51.60;;;;;;5092885;28;20461;-62
2023/08/07 11:25:26;;;;;;;;;;;21.10;51.50;;;;;;5097961;28;19979;-62
2023/08/07 11:27:52;;;;;;;;;;;21.00;51.30;;;;;;5098283;28;19927;-61
2023/08/07 11:30:19;;;;;;;;;;;21.10;51.50;;;;;;5102005;27;19934;-60
2023/08/07 11:32:46;;;;;;;;;;;21.00;51.20;;;;;;5098823;27;19924;-61
2023/08/07 11:35:13;;;;;;;;;;;21.10;51.10;;;;;;5118931;27;19930;-61
2023/08/07 11:37:46;;;;;;;;;;;21.00;51.00;;;;;;5089921;28;19930;-60
2023/08/07 11:40:13;;;;;;;;;;;21.00;51.10;;;;;;5080443;28;19924;-61
2023/08/07 11:42:42;;;;;;;;;;;21.00;51.30;;;;;;5101961;28;19923;-61
2023/08/07 11:45:09;;;;;;;;;;;21.00;51.30;;;;;;5091231;28;19931;-61
2023/08/07 11:47:36;;;;;;;;;;;21.00;51.30;;;;;;5092796;28;19996;-62
2023/08/07 11:50:03;;;;;;;;;;;21.00;51.10;;;;;;5106387;28;19980;-61
2023/08/07 11:52:30;;;;;;;;;;;21.00;51.30;;;;;;5094322;28;19930;-61
2023/08/07 11:54:57;;;;;;;;;;;21.00;51.50;;;;;;5104456;28;19935;-61
2023/08/07 11:57:24;;;;;;;;;;;21.00;51.50;;;;;;5092200;28;20072;-60
2023/08/07 11:59:52;;;;;;;;;;;21.10;51.60;;;;;;5102238;28;19923;-58
2023/08/07 12:02:23;;;;;;;;;;;21.10;51.80;;;;;;5110271;28;19969;-60
2023/08/07 12:04:49;;;;;;;;;;;21.00;51.80;;;;;;5094906;28;19972;-61
2023/08/07 12:07:19;;;;;;;;;;;21.00;51.80;;;;;;5116478;28;20319;-60
2023/08/07 12:09:46;;;;;;;;;;;21.00;51.90;;;;;;5096193;28;19930;-60
2023/08/07 12:12:13;;;;;;;;;;;21.10;51.90;;;;;;5112072;28;19974;-59
2023/08/07 12:14:39;;;;;;;;;;;21.10;52.10;;;;;;5122883;27;19924;-59
2023/08/07 12:17:09;;;;;;;;;;;21.10;52.20;;;;;;5107908;28;20418;-60
2023/08/07 12:19:36;;;;;;;;;;;21.10;52.20;;;;;;5093201;28;19927;-59
2023/08/07 12:22:04;;;;;;;;;;;21.10;52.20;;;;;;5109142;28;20336;-60
2023/08/07 12:24:30;;;;;;;;;;;21.10;52.30;;;;;;5100994;28;19969;-61
2023/08/07 12:26:57;;;;;;;;;;;21.10;52.40;;;;;;5093428;28;19940;-61
2023/08/07 12:29:28;;;;;;;;;;;21.20;52.50;;;;;;5080671;28;19976;-61
2023/08/07 12:31:55;;;;;;;;;;;21.20;52.50;;;;;;5093845;28;20319;-62
2023/08/07 12:34:23;;;;;;;;;;;21.20;52.50;;;;;;5104592;28;19973;-60
2023/08/07 12:36:50;;;;;;;;;;;21.20;52.40;;;;;;5096175;28;19927;-60
2023/08/07 12:39:17;;;;;;;;;;;21.20;52.30;;;;;;5100048;28;19927;-61
2023/08/07 12:41:44;;;;;;;;;;;21.10;52.20;;;;;;5100099;28;19924;-61
2023/08/07 12:44:12;;;;;;;;;;;21.20;52.40;;;;;;5108709;27;19961;-62
2023/08/07 12:46:40;;;;;;;;;;;21.20;52.30;;;;;;5105846;27;19990;-60
2023/08/07 12:49:09;;;;;;;;;;;21.20;52.10;;;;;;5110558;27;20463;-59
2023/08/07 12:51:37;;;;;;;;;;;21.10;51.90;;;;;;5122197;27;19927;-58
2023/08/07 12:54:04;;;;;;;;;;;21.10;51.70;;;;;;5122131;27;19923;-62
2023/08/07 12:56:31;;;;;;;;;;;21.10;51.50;;;;;;5097177;27;19955;-60
2023/08/07 12:58:57;;;;;;;;;;;21.10;51.40;;;;;;5090473;27;20334;-62
2023/08/07 13:01:25;;;;;;;;;;;21.10;51.40;;;;;;5114004;27;19924;-59
2023/08/07 13:03:52;;;;;;;;;;;21.10;51.40;;;;;;5124027;27;19923;-59
2023/08/07 13:06:19;;;;;;;;;;;21.10;51.20;;;;;;5101001;27;19931;-61
2023/08/07 13:08:47;;;;;;;;;;;21.10;50.90;;;;;;5110305;27;19929;-60
2023/08/07 13:11:14;;;;;;;;;;;21.10;50.90;;;;;;5101413;28;19924;-61
2023/08/07 13:13:40;;;;;;;;;;;21.10;50.90;;;;;;5120335;27;19924;-59
2023/08/07 13:16:08;;;;;;;;;;;21.10;51.10;;;;;;5104263;27;19995;-61
2023/08/07 13:18:34;;;;;;;;;;;21.10;51.40;;;;;;5104838;27;19924;-61
2023/08/07 13:21:01;;;;;;;;;;;21.10;51.60;;;;;;5103028;28;19935;-59
2023/08/07 13:23:28;;;;;;;;;;;21.10;51.80;;;;;;5096568;27;19928;-61
2023/08/07 13:25:56;;;;;;;;;;;21.10;51.90;;;;;;5091694;28;20018;-60
2023/08/07 13:28:23;;;;;;;;;;;21.10;52.10;;;;;;5096343;27;20140;-60
2023/08/07 13:30:50;;;;;;;;;;;21.10;52.10;;;;;;5097894;27;19923;-61
2023/08/07 13:33:19;;;;;;;;;;;21.10;52.20;;;;;;5105773;28;19924;-62
2023/08/07 13:35:46;;;;;;;;;;;21.10;52.30;;;;;;5106278;27;19924;-60
2023/08/07 13:38:14;;;;;;;;;;;21.10;52.40;;;;;;5102821;27;19949;-58
2023/08/07 13:40:43;;;;;;;;;;;21.20;52.60;;;;;;5100310;28;19955;-60
2023/08/07 13:43:12;;;;;;;;;;;21.20;52.60;;;;;;5091409;27;19928;-60
2023/08/07 13:45:38;;;;;;;;;;;21.20;52.70;;;;;;5100938;28;19935;-59
2023/08/07 13:48:06;;;;;;;;;;;21.20;53.40;;;;;;5104804;27;19996;-62
2023/08/07 13:50:33;;;;;;;;;;;21.30;52.80;;;;;;5101968;27;20458;-61
2023/08/07 13:52:59;;;;;;;;;;;21.30;52.80;;;;;;5100841;28;19924;-61
2023/08/07 13:55:26;;;;;;;;;;;21.30;52.90;;;;;;5098889;28;19927;-60
2023/08/07 13:57:53;;;;;;;;;;;21.30;52.80;;;;;;5105246;27;19969;-61
2023/08/07 14:00:21;;;;;;;;;;;21.30;52.80;;;;;;5104366;27;19932;-60
2023/08/07 14:02:48;;;;;;;;;;;21.30;52.80;;;;;;5095403;27;19935;-59
2023/08/07 14:05:15;;;;;;;;;;;21.30;52.90;;;;;;5097332;27;19931;-62
2023/08/07 14:07:41;;;;;;;;;;;21.30;53.00;;;;;;5097193;28;19923;-62
2023/08/07 14:10:09;;;;;;;;;;;21.30;53.00;;;;;;5125565;27;20473;-62
2023/08/07 14:12:35;;;;;;;;;;;21.30;52.80;;;;;;5094051;27;20027;-61
2023/08/07 14:15:02;;;;;;;;;;;21.30;52.50;;;;;;5098264;27;20362;-61